Time;durP1;ratioP1;P1;durP2;ratioP2;P2;SDS_P1;SDS_P2;PMS_P1;PMS_P2;Temp;Humidity;BMP_temperature;BMP_pressure;BME280_temperature;BME280_humidity;BME280_pressure;Samples;Min_cycle;Max_cycle;Signal;HPM_P1;HPM_P2
2022/07/31 00:01:16;;;;;;;2.88;2.05;;;23.00;59.10;;;;;;10515399;28;20063;-55
2022/07/31 00:06:18;;;;;;;3.00;2.10;;;23.00;59.10;;;;;;10533094;28;20026;-55
2022/07/31 00:11:18;;;;;;;2.47;2.13;;;23.00;59.20;;;;;;10533037;28;20436;-56
2022/07/31 00:16:19;;;;;;;2.40;2.10;;;23.00;59.30;;;;;;10514421;28;20085;-56
2022/07/31 00:21:20;;;;;;;2.83;2.13;;;23.00;59.30;;;;;;10532002;28;20016;-57
2022/07/31 00:26:21;;;;;;;3.13;2.15;;;22.90;59.20;;;;;;10532018;28;20376;-54
2022/07/31 00:31:23;;;;;;;2.83;2.38;;;23.00;59.30;;;;;;10532146;28;20048;-54
2022/07/31 00:36:23;;;;;;;3.53;2.65;;;22.90;59.30;;;;;;10497026;28;20024;-54
2022/07/31 00:41:24;;;;;;;3.03;2.40;;;23.00;59.40;;;;;;10512176;28;20040;-56
2022/07/31 00:46:25;;;;;;;3.42;2.40;;;22.90;59.30;;;;;;10531604;28;20036;-55
2022/07/31 00:51:26;;;;;;;3.63;2.42;;;22.90;59.40;;;;;;10530953;28;20073;-55
2022/07/31 00:56:27;;;;;;;2.78;2.30;;;22.90;59.40;;;;;;10512823;28;20051;-56
2022/07/31 01:01:27;;;;;;;3.70;2.33;;;22.90;59.40;;;;;;10495858;28;20032;-56
2022/07/31 01:06:28;;;;;;;2.53;2.25;;;22.90;59.50;;;;;;10530268;28;20073;-55
2022/07/31 01:11:43;;;;;;;2.67;2.40;;;22.90;59.50;;;;;;10512324;28;20036;-55
2022/07/31 01:16:47;;;;;;;3.13;2.60;;;22.90;59.50;;;;;;10530780;28;20563;-55
2022/07/31 01:22:17;;;;;;;2.33;2.10;;;22.90;59.50;;;;;;10512139;28;20044;-56
2022/07/31 01:27:46;;;;;;;2.97;2.35;;;22.90;60.20;;;;;;10512418;28;20032;-56
2022/07/31 01:32:49;;;;;;;2.80;2.35;;;22.90;59.60;;;;;;10524093;28;20106;-56
2022/07/31 01:38:07;;;;;;;3.58;2.55;;;22.90;59.70;;;;;;10511338;28;20462;-55
2022/07/31 01:43:23;;;;;;;3.63;2.58;;;22.90;59.70;;;;;;10513278;28;20036;-54
2022/07/31 01:48:25;;;;;;;4.25;2.55;;;22.90;59.70;;;;;;10511961;28;20085;-56
2022/07/31 01:53:26;;;;;;;3.03;2.35;;;22.90;59.80;;;;;;10511332;28;20127;-55
2022/07/31 01:58:32;;;;;;;2.65;2.35;;;22.90;59.80;;;;;;10511912;28;20386;-56
2022/07/31 02:03:34;;;;;;;2.65;2.38;;;22.90;59.90;;;;;;10529705;28;20020;-54
2022/07/31 02:08:37;;;;;;;3.90;2.47;;;22.90;59.90;;;;;;10511591;28;20028;-54
2022/07/31 02:13:37;;;;;;;2.30;2.10;;;22.90;59.90;;;;;;10494424;28;20107;-54
2022/07/31 02:18:40;;;;;;;3.17;2.50;;;22.90;59.90;;;;;;10529136;28;20034;-55
2022/07/31 02:23:41;;;;;;;2.90;2.38;;;22.90;60.00;;;;;;10513489;28;20428;-56
2022/07/31 02:28:45;;;;;;;3.80;2.45;;;22.90;60.00;;;;;;10511109;28;20393;-54
2022/07/31 02:33:47;;;;;;;3.10;2.72;;;22.90;60.00;;;;;;10529039;28;20021;-54
2022/07/31 02:38:50;;;;;;;3.42;2.63;;;22.90;60.00;;;;;;10510473;28;20390;-56
2022/07/31 02:43:51;;;;;;;4.18;2.40;;;22.90;60.10;;;;;;10528418;28;20067;-54
2022/07/31 02:48:52;;;;;;;3.38;3.00;;;22.90;60.10;;;;;;10510658;28;20028;-55
2022/07/31 02:53:54;;;;;;;2.90;2.35;;;22.90;60.10;;;;;;10528056;28;20039;-55
2022/07/31 02:58:55;;;;;;;2.88;2.45;;;22.80;60.00;;;;;;10510097;28;20064;-55
2022/07/31 03:03:55;;;;;;;3.10;2.40;;;22.80;60.10;;;;;;10531936;28;20028;-52
2022/07/31 03:08:56;;;;;;;3.35;2.95;;;22.80;60.10;;;;;;10535470;28;20081;-55
2022/07/31 03:13:59;;;;;;;2.90;2.45;;;22.80;60.20;;;;;;10536056;28;20115;-55
2022/07/31 03:19:02;;;;;;;3.42;3.13;;;22.80;60.20;;;;;;10516862;28;20036;-56
2022/07/31 03:24:03;;;;;;;4.28;2.92;;;22.80;60.20;;;;;;10516799;28;20498;-54
2022/07/31 03:29:04;;;;;;;4.05;2.55;;;22.80;60.20;;;;;;10516322;28;20081;-52
2022/07/31 03:34:05;;;;;;;2.70;2.42;;;22.80;60.20;;;;;;10516164;28;20095;-53
2022/07/31 03:39:05;;;;;;;3.13;2.80;;;22.80;60.30;;;;;;10533924;28;20407;-53
2022/07/31 03:44:07;;;;;;;3.45;3.00;;;22.80;60.30;;;;;;10533808;28;20317;-56
2022/07/31 03:49:08;;;;;;;3.22;2.80;;;22.80;60.30;;;;;;10515334;28;20028;-56
2022/07/31 03:54:09;;;;;;;4.22;2.80;;;22.80;60.30;;;;;;10531770;28;20060;-54
2022/07/31 03:59:10;;;;;;;4.07;2.65;;;22.80;60.40;;;;;;10511475;28;20032;-57
2022/07/31 04:04:12;;;;;;;3.47;2.63;;;22.80;60.30;;;;;;10516928;28;20471;-55
2022/07/31 04:09:13;;;;;;;2.97;2.60;;;22.80;60.30;;;;;;10534859;28;20449;-56
2022/07/31 04:14:13;;;;;;;3.60;3.08;;;22.80;60.30;;;;;;10517289;28;20078;-54
2022/07/31 04:19:14;;;;;;;2.97;2.72;;;22.80;60.40;;;;;;10516587;28;20115;-55
2022/07/31 04:24:17;;;;;;;3.25;2.95;;;22.80;60.40;;;;;;10502718;28;20024;-56
2022/07/31 04:29:17;;;;;;;4.13;3.30;;;22.80;60.40;;;;;;10516263;28;20036;-55
2022/07/31 04:34:18;;;;;;;2.85;2.58;;;22.80;60.40;;;;;;10531771;28;20475;-56
2022/07/31 04:39:19;;;;;;;3.47;3.05;;;22.80;60.40;;;;;;10532949;28;20048;-55
2022/07/31 04:44:20;;;;;;;3.00;2.70;;;22.80;60.40;;;;;;10530176;28;20034;-55
2022/07/31 04:49:20;;;;;;;4.15;2.67;;;22.80;60.60;;;;;;10515328;28;20106;-56
2022/07/31 04:54:21;;;;;;;4.47;3.08;;;22.80;60.90;;;;;;10533319;28;20525;-56
2022/07/31 04:59:22;;;;;;;4.07;2.47;;;22.80;61.40;;;;;;10533066;28;20140;-56
2022/07/31 05:04:25;;;;;;;7.85;3.28;;;22.90;61.80;;;;;;10514835;28;20031;-57
2022/07/31 05:09:29;;;;;;;10.90;3.58;;;23.00;61.90;;;;;;10532854;28;20982;-53
2022/07/31 05:14:29;;;;;;;8.52;3.30;;;22.90;62.30;;;;;;10500190;28;20028;-56
2022/07/31 05:19:30;;;;;;;8.18;3.10;;;22.90;62.10;;;;;;10521010;28;20032;-55
2022/07/31 05:24:32;;;;;;;7.20;2.80;;;22.90;61.90;;;;;;10513456;28;20518;-55
2022/07/31 05:29:33;;;;;;;18.88;4.88;;;22.90;61.90;;;;;;10514982;28;20043;-56
2022/07/31 05:34:33;;;;;;;20.48;5.47;;;22.80;62.10;;;;;;10532266;28;20036;-53
2022/07/31 05:39:34;;;;;;;17.30;4.28;;;22.90;62.40;;;;;;10531920;28;20383;-52
2022/07/31 05:44:35;;;;;;;7.85;3.75;;;22.90;62.30;;;;;;10512815;28;20031;-55
2022/07/31 05:49:35;;;;;;;10.98;4.68;;;22.90;62.20;;;;;;10529758;28;20046;-53
2022/07/31 05:54:36;;;;;;;12.40;4.28;;;22.90;62.10;;;;;;10531677;28;20063;-55
2022/07/31 05:59:37;;;;;;;7.60;3.53;;;22.90;62.10;;;;;;10530968;28;20414;-54
2022/07/31 06:04:37;;;;;;;10.63;4.32;;;22.90;62.00;;;;;;10529098;28;20076;-53
2022/07/31 06:09:38;;;;;;;7.07;3.70;;;22.90;62.00;;;;;;10510540;28;20122;-55
2022/07/31 06:14:39;;;;;;;8.60;4.00;;;22.80;61.90;;;;;;10493511;28;20025;-54
2022/07/31 06:19:39;;;;;;;5.65;3.10;;;22.90;61.90;;;;;;10529722;28;20435;-55
2022/07/31 06:24:40;;;;;;;6.57;2.78;;;22.80;61.80;;;;;;10530759;28;20043;-55
2022/07/31 06:29:41;;;;;;;6.07;3.08;;;22.80;61.80;;;;;;10513140;28;20042;-55
2022/07/31 06:34:42;;;;;;;7.35;3.45;;;22.80;61.80;;;;;;10530723;28;20062;-53
2022/07/31 06:39:42;;;;;;;5.00;3.22;;;22.80;61.80;;;;;;10518185;28;20043;-55
2022/07/31 06:44:43;;;;;;;8.35;3.35;;;22.80;61.80;;;;;;10538276;28;20110;-56
2022/07/31 06:49:44;;;;;;;5.05;3.35;;;22.80;61.90;;;;;;10538392;28;20404;-53
2022/07/31 06:54:45;;;;;;;9.57;3.78;;;22.80;61.80;;;;;;10535817;28;20514;-54
2022/07/31 06:59:46;;;;;;;9.65;3.80;;;22.80;62.60;;;;;;10520929;28;20032;-52
2022/07/31 07:04:47;;;;;;;11.25;4.13;;;22.90;62.90;;;;;;10538885;28;20032;-55
2022/07/31 07:09:47;;;;;;;9.75;4.28;;;23.00;63.10;;;;;;10538602;28;20553;-53
2022/07/31 07:14:48;;;;;;;13.02;4.10;;;23.00;63.70;;;;;;10538349;28;20161;-56
2022/07/31 07:19:49;;;;;;;8.65;3.83;;;23.00;64.00;;;;;;10538160;28;20028;-55
2022/07/31 07:24:50;;;;;;;18.10;5.30;;;23.00;64.20;;;;;;10537923;28;20096;-55
2022/07/31 07:29:51;;;;;;;13.75;4.53;;;23.00;64.30;;;;;;10537904;28;20035;-53
2022/07/31 07:34:51;;;;;;;13.25;5.05;;;22.90;63.30;;;;;;10537646;28;20103;-55
2022/07/31 07:39:52;;;;;;;7.43;4.78;;;23.00;64.70;;;;;;10502274;28;20566;-57
2022/07/31 07:44:53;;;;;;;8.55;5.50;;;22.90;64.40;;;;;;10519335;28;20024;-58
2022/07/31 07:49:53;;;;;;;11.43;5.82;;;22.90;64.10;;;;;;10518572;28;20133;-57
2022/07/31 07:54:54;;;;;;;10.43;5.25;;;22.90;64.10;;;;;;10535289;28;20028;-56
2022/07/31 07:59:58;;;;;;;11.80;6.40;;;22.90;63.80;;;;;;10498069;28;20028;-57
2022/07/31 08:05:00;;;;;;;21.70;8.75;;;22.90;65.50;;;;;;10536871;28;20024;-57
2022/07/31 08:10:02;;;;;;;20.40;9.07;;;22.90;66.80;;;;;;10518524;28;20024;-56
2022/07/31 08:15:04;;;;;;;33.70;9.95;;;23.00;67.50;;;;;;10518198;28;20016;-60
2022/07/31 08:20:06;;;;;;;20.85;9.18;;;23.00;67.50;;;;;;10517782;28;20427;-58
2022/07/31 08:25:07;;;;;;;16.83;8.75;;;23.00;68.00;;;;;;10517909;28;20183;-57
2022/07/31 08:30:08;;;;;;;20.30;10.35;;;23.00;67.60;;;;;;10526991;28;20130;-55
2022/07/31 08:35:09;;;;;;;20.33;9.05;;;23.00;68.10;;;;;;10531371;28;20669;-56
2022/07/31 08:40:11;;;;;;;24.45;8.90;;;23.00;67.10;;;;;;10515624;28;20066;-56
2022/07/31 08:45:12;;;;;;;24.15;8.32;;;23.00;66.70;;;;;;10514198;28;20028;-55
2022/07/31 08:50:14;;;;;;;23.17;8.38;;;23.00;66.80;;;;;;10531654;28;20098;-55
2022/07/31 08:55:15;;;;;;;28.00;9.38;;;23.00;66.90;;;;;;10530916;28;20062;-54
2022/07/31 09:00:18;;;;;;;34.78;9.45;;;23.00;66.40;;;;;;10531832;28;20035;-56
2022/07/31 09:05:20;;;;;;;19.38;8.02;;;23.00;66.70;;;;;;10514554;28;20088;-55
2022/07/31 09:10:27;;;;;;;15.00;8.25;;;23.00;66.80;;;;;;10532419;28;20031;-57
2022/07/31 09:15:30;;;;;;;16.50;7.60;;;23.00;66.90;;;;;;10532606;28;20036;-55
2022/07/31 09:20:31;;;;;;;15.93;7.45;;;23.00;67.20;;;;;;10532705;28;20506;-57
2022/07/31 09:25:32;;;;;;;16.90;8.88;;;23.00;67.20;;;;;;10514424;28;20058;-57
2022/07/31 09:30:33;;;;;;;14.43;8.02;;;23.00;67.50;;;;;;10515239;28;20034;-57
2022/07/31 09:35:38;;;;;;;16.55;8.10;;;23.00;67.80;;;;;;10532270;28;20036;-56
2022/07/31 09:40:42;;;;;;;20.30;7.95;;;23.00;68.00;;;;;;10514127;28;20067;-55
2022/07/31 09:46:02;;;;;;;10.52;7.18;;;23.00;68.00;;;;;;10531915;28;20051;-56
2022/07/31 09:51:06;;;;;;;11.73;6.55;;;23.00;67.90;;;;;;10531971;28;20490;-55
2022/07/31 09:56:11;;;;;;;13.45;5.55;;;23.00;67.80;;;;;;10514913;28;20040;-55
2022/07/31 10:01:12;;;;;;;12.40;6.05;;;23.00;67.90;;;;;;10515130;28;20671;-56
2022/07/31 10:06:13;;;;;;;27.35;7.43;;;22.90;67.80;;;;;;10514292;28;20035;-56
2022/07/31 10:11:21;;;;;;;19.02;6.80;;;23.00;68.00;;;;;;10515680;28;20024;-56
2022/07/31 10:16:26;;;;;;;17.63;6.87;;;23.00;68.00;;;;;;10539936;28;20035;-57
2022/07/31 10:21:36;;;;;;;9.85;5.90;;;23.00;67.90;;;;;;10506115;28;20035;-56
2022/07/31 10:26:37;;;;;;;14.45;5.68;;;23.00;68.40;;;;;;10522778;28;20024;-56
2022/07/31 10:31:38;;;;;;;8.65;5.78;;;23.00;68.50;;;;;;10522023;28;20035;-56
2022/07/31 10:36:43;;;;;;;13.63;6.53;;;23.10;68.20;;;;;;10504099;28;20069;-54
2022/07/31 10:42:10;;;;;;;21.65;9.25;;;23.20;69.30;;;;;;10520698;28;20098;-56
2022/07/31 10:47:15;;;;;;;20.02;9.80;;;23.40;70.60;;;;;;10514117;28;20028;-56
2022/07/31 10:52:35;;;;;;;20.17;7.65;;;23.50;69.60;;;;;;10521141;28;20020;-55
2022/07/31 10:57:36;;;;;;;18.88;7.32;;;23.50;70.10;;;;;;10521371;28;20036;-56
2022/07/31 11:02:37;;;;;;;21.20;8.57;;;23.50;70.30;;;;;;10520864;28;20570;-56
2022/07/31 11:07:44;;;;;;;11.45;7.43;;;23.40;70.20;;;;;;10520733;28;20036;-55
2022/07/31 11:12:59;;;;;;;14.43;7.85;;;23.40;70.20;;;;;;10538824;28;20038;-57
2022/07/31 11:18:23;;;;;;;20.23;8.52;;;23.40;70.00;;;;;;10522148;28;20040;-54
2022/07/31 11:23:29;;;;;;;11.25;7.03;;;23.40;70.00;;;;;;10502380;28;20020;-57
2022/07/31 11:28:30;;;;;;;23.15;7.68;;;23.40;69.90;;;;;;10518734;28;20020;-54
2022/07/31 11:33:43;;;;;;;14.00;7.18;;;23.60;68.70;;;;;;10518506;28;20028;-54
2022/07/31 11:38:48;;;;;;;13.95;7.25;;;23.40;69.40;;;;;;10536494;28;20052;-54
2022/07/31 11:43:51;;;;;;;16.33;7.72;;;23.30;69.50;;;;;;10535796;28;20386;-55
2022/07/31 11:48:53;;;;;;;22.52;7.60;;;23.30;69.70;;;;;;10518817;28;20040;-55
2022/07/31 11:53:55;;;;;;;28.27;10.07;;;23.30;69.50;;;;;;10518477;28;20427;-53
2022/07/31 11:58:57;;;;;;;25.75;10.32;;;23.20;69.30;;;;;;10536497;28;20449;-53
2022/07/31 12:03:58;;;;;;;27.23;10.43;;;23.20;70.30;;;;;;10536771;28;20024;-53
2022/07/31 12:08:59;;;;;;;30.92;10.60;;;23.20;70.70;;;;;;10535069;28;20039;-52
2022/07/31 12:14:00;;;;;;;23.13;11.63;;;23.20;70.50;;;;;;10516811;28;20075;-53
2022/07/31 12:19:01;;;;;;;23.45;10.65;;;23.30;71.70;;;;;;10534358;28;20039;-55
2022/07/31 12:24:11;;;;;;;17.17;10.35;;;23.40;71.30;;;;;;10516208;28;20412;-55
2022/07/31 12:29:12;;;;;;;15.95;10.25;;;23.30;70.60;;;;;;10527497;28;20043;-55
2022/07/31 12:34:28;;;;;;;17.92;11.65;;;23.20;70.70;;;;;;10534851;28;20035;-55
2022/07/31 12:39:31;;;;;;;21.58;11.00;;;23.20;71.30;;;;;;10529267;28;20055;-55
2022/07/31 12:44:32;;;;;;;21.27;11.30;;;23.20;70.30;;;;;;10516418;28;20035;-55
2022/07/31 12:49:33;;;;;;;18.23;11.35;;;23.20;70.30;;;;;;10533879;28;20031;-54
2022/07/31 12:54:34;;;;;;;17.77;10.38;;;23.10;70.30;;;;;;10514490;28;20032;-54
2022/07/31 12:59:38;;;;;;;23.38;11.85;;;23.20;69.90;;;;;;10524541;28;20032;-56
2022/07/31 13:04:39;;;;;;;19.95;10.98;;;23.10;70.00;;;;;;10514376;28;20363;-56
2022/07/31 13:09:40;;;;;;;30.02;12.13;;;23.10;69.60;;;;;;10531188;28;20028;-56
2022/07/31 13:14:40;;;;;;;31.30;14.15;;;23.20;70.10;;;;;;10514056;28;20024;-56
2022/07/31 13:19:41;;;;;;;57.45;15.98;;;23.20;69.90;;;;;;10513852;28;20040;-56
2022/07/31 13:24:42;;;;;;;67.78;16.35;;;23.20;69.60;;;;;;10513584;28;20028;-55
2022/07/31 13:29:43;;;;;;;49.15;15.27;;;23.20;69.90;;;;;;10513397;28;20133;-55
2022/07/31 13:34:43;;;;;;;33.95;13.90;;;23.30;69.90;;;;;;10531854;28;20782;-56
2022/07/31 13:39:44;;;;;;;39.25;15.25;;;23.30;70.20;;;;;;10530524;28;20170;-55
2022/07/31 13:44:45;;;;;;;41.38;15.90;;;23.20;70.10;;;;;;10530900;28;20024;-54
2022/07/31 13:49:46;;;;;;;45.40;14.70;;;23.30;70.00;;;;;;10530441;28;20028;-54
2022/07/31 13:54:46;;;;;;;34.05;13.48;;;23.30;70.30;;;;;;10530705;28;20043;-54
2022/07/31 13:59:47;;;;;;;33.65;12.40;;;23.30;70.30;;;;;;10512152;28;20032;-55
2022/07/31 14:04:48;;;;;;;48.45;14.18;;;23.30;70.20;;;;;;10530249;28;20103;-55
2022/07/31 14:09:48;;;;;;;29.52;12.57;;;23.30;70.20;;;;;;10495311;28;20103;-55
2022/07/31 14:14:49;;;;;;;41.53;11.27;;;23.30;70.20;;;;;;10496801;28;20054;-55
2022/07/31 14:19:50;;;;;;;36.53;13.23;;;23.30;70.10;;;;;;10500901;28;20108;-55
2022/07/31 14:24:51;;;;;;;42.42;13.77;;;23.30;70.20;;;;;;10483031;28;20050;-55
2022/07/31 14:29:51;;;;;;;34.45;11.50;;;23.30;70.30;;;;;;10505565;28;20024;-56
2022/07/31 14:34:53;;;;;;;48.13;13.75;;;23.30;70.60;;;;;;10526278;28;20036;-52
2022/07/31 14:39:54;;;;;;;37.35;11.38;;;23.30;70.30;;;;;;10526570;28;20042;-53
2022/07/31 14:44:55;;;;;;;30.63;11.43;;;23.30;70.10;;;;;;10513817;28;20017;-54
2022/07/31 14:49:56;;;;;;;35.70;11.32;;;23.30;70.10;;;;;;10526804;28;20032;-55
2022/07/31 14:54:59;;;;;;;41.20;13.10;;;23.30;70.00;;;;;;10529923;28;20032;-56
2022/07/31 15:00:00;;;;;;;29.98;11.57;;;23.20;69.90;;;;;;10533567;28;20111;-54
2022/07/31 15:05:01;;;;;;;40.92;11.95;;;23.20;69.60;;;;;;10537688;28;20024;-56
2022/07/31 15:10:04;;;;;;;33.97;12.25;;;23.20;70.40;;;;;;10499185;28;20429;-55
2022/07/31 15:15:06;;;;;;;31.20;10.98;;;23.30;70.70;;;;;;10488419;28;20035;-56
2022/07/31 15:20:07;;;;;;;31.67;11.20;;;23.20;70.60;;;;;;10506180;28;20028;-54
2022/07/31 15:25:09;;;;;;;23.00;10.32;;;23.30;70.80;;;;;;10504702;28;20024;-50
2022/07/31 15:30:10;;;;;;;23.30;10.77;;;23.30;70.80;;;;;;10509282;28;20528;-53
2022/07/31 15:35:12;;;;;;;49.55;10.90;;;23.30;70.50;;;;;;10501471;28;20383;-54
2022/07/31 15:40:15;;;;;;;25.80;8.75;;;23.30;71.20;;;;;;10536700;28;20054;-53
2022/07/31 15:45:18;;;;;;;25.48;10.45;;;23.30;71.80;;;;;;10519288;28;20080;-54
2022/07/31 15:50:19;;;;;;;32.20;8.63;;;23.30;71.70;;;;;;10526646;28;20422;-57
2022/07/31 15:55:20;;;;;;;34.15;10.27;;;23.30;71.70;;;;;;10526360;28;20032;-53
2022/07/31 16:00:21;;;;;;;28.98;8.82;;;23.30;71.90;;;;;;10521954;28;20024;-54
2022/07/31 16:05:21;;;;;;;28.85;8.85;;;23.40;73.60;;;;;;10533851;28;20103;-54
2022/07/31 16:10:22;;;;;;;24.50;7.85;;;23.50;73.70;;;;;;10534602;28;20042;-52
2022/07/31 16:15:23;;;;;;;18.60;7.20;;;23.60;73.90;;;;;;10534765;28;20032;-53
2022/07/31 16:20:24;;;;;;;17.85;6.70;;;23.60;73.30;;;;;;10534400;28;20028;-53
2022/07/31 16:25:26;;;;;;;28.20;8.93;;;23.50;72.90;;;;;;10528071;28;20463;-54
2022/07/31 16:30:27;;;;;;;22.77;6.97;;;23.50;73.10;;;;;;10525386;28;20048;-47
2022/07/31 16:35:28;;;;;;;22.42;7.57;;;23.50;72.90;;;;;;10534074;28;20133;-53
2022/07/31 16:40:30;;;;;;;21.52;6.88;;;23.50;72.50;;;;;;10532964;28;20032;-53
2022/07/31 16:45:31;;;;;;;24.58;7.90;;;23.50;72.80;;;;;;10533344;28;20087;-52
2022/07/31 16:50:31;;;;;;;21.65;7.53;;;23.50;73.50;;;;;;10534465;28;20080;-49
2022/07/31 16:55:32;;;;;;;22.58;8.43;;;23.40;72.70;;;;;;10534223;28;20171;-48
2022/07/31 17:00:33;;;;;;;19.45;7.22;;;23.50;72.90;;;;;;10533931;28;20024;-52
2022/07/31 17:05:34;;;;;;;22.90;8.43;;;23.50;73.20;;;;;;10534412;28;20028;-48
2022/07/31 17:10:35;;;;;;;24.75;7.60;;;23.40;72.50;;;;;;10533788;28;20036;-50
2022/07/31 17:15:35;;;;;;;21.67;6.78;;;23.40;72.60;;;;;;10533361;28;20658;-49
2022/07/31 17:20:38;;;;;;;15.63;7.00;;;23.40;73.00;;;;;;10507464;28;20032;-55
2022/07/31 17:25:38;;;;;;;15.75;6.95;;;23.40;73.20;;;;;;10530080;28;20066;-56
2022/07/31 17:30:39;;;;;;;14.77;5.93;;;23.40;73.30;;;;;;10515405;28;20107;-53
2022/07/31 17:35:40;;;;;;;20.80;8.52;;;23.40;73.40;;;;;;10515071;28;20034;-48
2022/07/31 17:40:40;;;;;;;19.90;7.60;;;23.40;73.10;;;;;;10532977;28;20052;-53
2022/07/31 17:45:42;;;;;;;14.25;6.85;;;23.50;73.50;;;;;;10532390;28;20047;-55
2022/07/31 17:50:43;;;;;;;19.95;7.35;;;23.50;73.10;;;;;;10512444;28;20110;-55
2022/07/31 17:55:44;;;;;;;20.10;6.57;;;23.50;73.00;;;;;;10513752;28;20080;-53
2022/07/31 18:00:45;;;;;;;11.57;6.05;;;23.60;73.00;;;;;;10531141;28;20028;-56
2022/07/31 18:05:46;;;;;;;16.73;6.47;;;23.50;73.00;;;;;;10531551;28;20039;-54
2022/07/31 18:10:46;;;;;;;11.95;5.78;;;23.50;72.90;;;;;;10530049;28;20118;-54
2022/07/31 18:15:47;;;;;;;16.80;6.30;;;23.50;72.90;;;;;;10514682;28;20111;-55
2022/07/31 18:20:48;;;;;;;12.35;6.10;;;23.50;73.00;;;;;;10511779;28;20032;-53
2022/07/31 18:25:48;;;;;;;19.08;6.00;;;23.50;72.90;;;;;;10527058;28;20547;-47
2022/07/31 18:30:49;;;;;;;15.18;5.85;;;23.50;72.90;;;;;;10528224;28;20038;-51
2022/07/31 18:35:50;;;;;;;9.52;5.65;;;23.50;72.90;;;;;;10519767;28;20032;-53
2022/07/31 18:40:50;;;;;;;9.90;5.15;;;23.50;72.70;;;;;;10519726;28;20499;-52
2022/07/31 18:45:51;;;;;;;13.18;4.97;;;23.50;72.70;;;;;;10538181;28;20372;-53
2022/07/31 18:50:52;;;;;;;11.43;5.15;;;23.40;72.90;;;;;;10529388;28;20066;-52
2022/07/31 18:55:53;;;;;;;10.07;5.53;;;23.40;72.80;;;;;;10511359;28;20032;-52
2022/07/31 19:00:53;;;;;;;12.55;5.35;;;23.40;72.80;;;;;;10519336;28;20586;-54
2022/07/31 19:05:54;;;;;;;12.98;5.22;;;23.40;72.80;;;;;;10537451;28;20123;-53
2022/07/31 19:10:55;;;;;;;12.68;5.57;;;23.40;72.70;;;;;;10537580;28;20028;-54
2022/07/31 19:15:55;;;;;;;6.93;5.05;;;23.40;72.70;;;;;;10519238;28;20758;-54
2022/07/31 19:20:56;;;;;;;11.52;5.70;;;23.40;72.40;;;;;;10532534;28;20040;-54
2022/07/31 19:25:57;;;;;;;6.22;4.03;;;23.40;72.40;;;;;;10516962;28;20032;-53
2022/07/31 19:30:58;;;;;;;9.80;4.53;;;23.40;72.70;;;;;;10518638;28;20107;-53
2022/07/31 19:36:00;;;;;;;16.40;5.40;;;23.40;72.90;;;;;;10518499;28;20096;-55
2022/07/31 19:41:00;;;;;;;9.68;5.07;;;23.40;72.40;;;;;;10537395;28;20489;-55
2022/07/31 19:46:01;;;;;;;7.63;4.47;;;23.30;71.80;;;;;;10536856;28;20133;-54
2022/07/31 19:51:03;;;;;;;9.27;5.13;;;23.30;71.80;;;;;;10500401;28;20031;-54
2022/07/31 19:56:05;;;;;;;7.57;3.92;;;23.40;71.50;;;;;;10517124;28;20028;-56
2022/07/31 20:01:07;;;;;;;8.00;4.35;;;23.30;71.30;;;;;;10516810;28;20042;-52
2022/07/31 20:06:08;;;;;;;6.20;3.88;;;23.30;70.80;;;;;;10534275;28;20036;-54
2022/07/31 20:11:09;;;;;;;6.35;4.63;;;23.30;70.80;;;;;;10534320;28;20020;-54
2022/07/31 20:16:10;;;;;;;9.07;4.03;;;23.30;70.50;;;;;;10536322;28;20032;-53
2022/07/31 20:21:10;;;;;;;7.57;4.20;;;23.30;70.50;;;;;;10534990;28;20031;-55
2022/07/31 20:26:13;;;;;;;6.60;3.70;;;23.30;70.30;;;;;;10535594;28;20024;-55
2022/07/31 20:31:13;;;;;;;12.27;5.35;;;23.30;70.30;;;;;;10522079;28;20027;-54
2022/07/31 20:36:14;;;;;;;7.68;3.88;;;23.30;70.30;;;;;;10517299;28;20497;-53
2022/07/31 20:41:15;;;;;;;6.28;4.03;;;23.30;70.20;;;;;;10517119;28;20442;-54
2022/07/31 20:46:17;;;;;;;5.18;3.88;;;23.30;70.20;;;;;;10535225;28;20065;-54
2022/07/31 20:51:22;;;;;;;5.10;3.90;;;23.30;70.10;;;;;;10516921;28;20122;-56
2022/07/31 20:56:22;;;;;;;7.18;3.75;;;23.30;70.10;;;;;;10533739;28;20119;-55
2022/07/31 21:01:24;;;;;;;8.10;4.68;;;23.30;70.00;;;;;;10516357;28;20401;-54
2022/07/31 21:06:25;;;;;;;5.75;4.32;;;23.30;70.10;;;;;;10534470;28;20035;-54
2022/07/31 21:11:26;;;;;;;6.75;3.95;;;23.30;69.90;;;;;;10534108;28;20028;-56
2022/07/31 21:16:26;;;;;;;6.75;3.83;;;23.30;70.00;;;;;;10533747;28;20157;-55
2022/07/31 21:21:27;;;;;;;7.00;4.03;;;23.30;69.80;;;;;;10515491;28;20514;-56
2022/07/31 21:26:29;;;;;;;5.07;3.78;;;23.30;69.90;;;;;;10533632;28;20027;-56
2022/07/31 21:31:30;;;;;;;6.45;3.92;;;23.30;70.00;;;;;;10515320;28;20066;-55
2022/07/31 21:36:31;;;;;;;4.85;3.80;;;23.30;69.90;;;;;;10532973;28;20028;-55
2022/07/31 21:41:33;;;;;;;6.88;4.05;;;23.20;69.70;;;;;;10532910;28;20044;-55
2022/07/31 21:46:37;;;;;;;5.80;4.20;;;23.30;69.80;;;;;;10532717;28;20032;-55
2022/07/31 21:51:38;;;;;;;5.57;3.85;;;23.20;69.70;;;;;;10532636;28;20029;-55
2022/07/31 21:56:40;;;;;;;5.43;3.75;;;23.30;69.60;;;;;;10514824;28;20028;-53
2022/07/31 22:01:41;;;;;;;6.90;4.20;;;23.20;69.70;;;;;;10532491;28;20431;-55
2022/07/31 22:12:01;;;;;;;;;;;23.20;69.60;;;;;;10541835;28;20063;-56
2022/07/31 22:17:01;;;;;;;6.05;3.67;;;23.20;69.50;;;;;;10541093;28;20270;-56
2022/07/31 22:22:02;;;;;;;5.50;3.55;;;23.20;69.60;;;;;;10522681;28;20036;-54
2022/07/31 22:32:24;;;;;;;4.78;3.60;;;23.20;69.50;;;;;;10518019;28;20077;-54
2022/07/31 22:37:28;;;;;;;4.65;3.80;;;23.20;69.50;;;;;;10540005;28;20044;-55
2022/07/31 22:42:28;;;;;;;5.55;3.47;;;23.20;69.50;;;;;;10539773;28;20032;-55
2022/07/31 22:47:30;;;;;;;4.63;3.85;;;23.20;69.50;;;;;;10539859;28;20024;-54
2022/07/31 22:52:31;;;;;;;7.32;3.97;;;23.20;69.40;;;;;;10539639;28;20032;-55
2022/07/31 22:57:32;;;;;;;5.60;3.58;;;23.20;69.40;;;;;;10539675;28;20401;-56
2022/07/31 23:02:32;;;;;;;5.22;3.75;;;23.20;69.40;;;;;;10539252;28;20077;-55
2022/07/31 23:07:33;;;;;;;5.30;3.60;;;23.20;69.20;;;;;;10539142;28;20032;-56
2022/07/31 23:12:34;;;;;;;5.50;3.97;;;23.20;69.20;;;;;;10504359;28;20121;-54
2022/07/31 23:17:35;;;;;;;5.18;3.50;;;23.10;69.30;;;;;;10538776;28;20068;-56
2022/07/31 23:22:35;;;;;;;4.45;3.15;;;23.10;69.20;;;;;;10537446;28;20043;-54
2022/07/31 23:27:36;;;;;;;4.38;3.47;;;23.20;69.20;;;;;;10538066;28;20107;-55
2022/07/31 23:32:37;;;;;;;5.63;3.45;;;23.10;69.10;;;;;;10530597;28;20081;-53
2022/07/31 23:37:38;;;;;;;6.38;3.35;;;23.10;69.10;;;;;;10537738;28;20073;-55
2022/07/31 23:42:38;;;;;;;3.85;2.95;;;23.10;69.00;;;;;;10537455;28;20020;-55
2022/07/31 23:47:39;;;;;;;5.50;3.50;;;23.20;69.20;;;;;;10537785;28;20028;-54
2022/07/31 23:52:42;;;;;;;4.32;3.10;;;23.10;69.10;;;;;;10537357;28;20433;-54
2022/07/31 23:57:42;;;;;;;4.63;3.55;;;23.10;69.00;;;;;;10518862;28;20058;-55
